sensor_id;sensor_type;location;lat;lon;timestamp;P1;durP1;ratioP1;P2;durP2;ratioP2
13571;SDS011;6857;53.484;10.216;2023-01-20T00:00:02;22.70;;;8.90;;
13571;SDS011;6857;53.484;10.216;2023-01-20T00:02:29;22.93;;;9.73;;
13571;SDS011;6857;53.484;10.216;2023-01-20T00:04:54;21.10;;;9.13;;
13571;SDS011;6857;53.484;10.216;2023-01-20T00:07:20;20.93;;;9.57;;
13571;SDS011;6857;53.484;10.216;2023-01-20T00:09:45;23.47;;;10.33;;
13571;SDS011;6857;53.484;10.216;2023-01-20T00:12:11;24.23;;;10.37;;
13571;SDS011;6857;53.484;10.216;2023-01-20T00:14:36;18.60;;;10.43;;
13571;SDS011;6857;53.484;10.216;2023-01-20T00:17:02;24.80;;;11.80;;
13571;SDS011;6857;53.484;10.216;2023-01-20T00:19:28;24.80;;;10.87;;
13571;SDS011;6857;53.484;10.216;2023-01-20T00:21:53;25.77;;;11.87;;
13571;SDS011;6857;53.484;10.216;2023-01-20T00:24:19;21.80;;;11.80;;
13571;SDS011;6857;53.484;10.216;2023-01-20T00:26:44;24.30;;;11.37;;
13571;SDS011;6857;53.484;10.216;2023-01-20T00:29:10;26.63;;;12.03;;
13571;SDS011;6857;53.484;10.216;2023-01-20T00:31:35;22.30;;;12.03;;
13571;SDS011;6857;53.484;10.216;2023-01-20T00:34:01;30.87;;;12.97;;
13571;SDS011;6857;53.484;10.216;2023-01-20T00:36:28;25.70;;;12.57;;
13571;SDS011;6857;53.484;10.216;2023-01-20T00:38:55;29.20;;;14.47;;
13571;SDS011;6857;53.484;10.216;2023-01-20T00:41:21;30.33;;;13.77;;
13571;SDS011;6857;53.484;10.216;2023-01-20T00:43:47;30.17;;;15.33;;
13571;SDS011;6857;53.484;10.216;2023-01-20T00:46:13;35.50;;;14.67;;
13571;SDS011;6857;53.484;10.216;2023-01-20T00:48:39;32.57;;;14.83;;
13571;SDS011;6857;53.484;10.216;2023-01-20T00:51:05;33.07;;;14.77;;
13571;SDS011;6857;53.484;10.216;2023-01-20T00:53:31;31.60;;;16.10;;
13571;SDS011;6857;53.484;10.216;2023-01-20T00:55:57;30.30;;;15.60;;
13571;SDS011;6857;53.484;10.216;2023-01-20T00:58:38;32.00;;;16.07;;
13571;SDS011;6857;53.484;10.216;2023-01-20T01:01:05;33.17;;;17.07;;
13571;SDS011;6857;53.484;10.216;2023-01-20T01:03:31;39.93;;;19.90;;
13571;SDS011;6857;53.484;10.216;2023-01-20T01:06:07;40.43;;;18.40;;
13571;SDS011;6857;53.484;10.216;2023-01-20T01:08:34;43.00;;;22.67;;
13571;SDS011;6857;53.484;10.216;2023-01-20T01:11:00;43.93;;;23.20;;
13571;SDS011;6857;53.484;10.216;2023-01-20T01:13:26;41.97;;;19.00;;
13571;SDS011;6857;53.484;10.216;2023-01-20T01:15:51;39.93;;;21.00;;
13571;SDS011;6857;53.484;10.216;2023-01-20T01:18:17;36.73;;;19.87;;
13571;SDS011;6857;53.484;10.216;2023-01-20T01:20:42;46.17;;;20.53;;
13571;SDS011;6857;53.484;10.216;2023-01-20T01:23:09;44.87;;;20.23;;
13571;SDS011;6857;53.484;10.216;2023-01-20T01:25:38;39.33;;;19.30;;
13571;SDS011;6857;53.484;10.216;2023-01-20T01:28:04;45.00;;;23.60;;
13571;SDS011;6857;53.484;10.216;2023-01-20T01:30:29;45.43;;;22.63;;
13571;SDS011;6857;53.484;10.216;2023-01-20T01:32:55;43.27;;;22.50;;
13571;SDS011;6857;53.484;10.216;2023-01-20T01:35:20;40.37;;;22.50;;
13571;SDS011;6857;53.484;10.216;2023-01-20T01:37:46;45.20;;;21.40;;
13571;SDS011;6857;53.484;10.216;2023-01-20T01:40:11;46.73;;;21.33;;
13571;SDS011;6857;53.484;10.216;2023-01-20T01:42:37;49.40;;;22.93;;
13571;SDS011;6857;53.484;10.216;2023-01-20T01:47:37;43.73;;;22.80;;
13571;SDS011;6857;53.484;10.216;2023-01-20T01:50:22;44.20;;;23.30;;
13571;SDS011;6857;53.484;10.216;2023-01-20T01:52:57;41.93;;;21.23;;
13571;SDS011;6857;53.484;10.216;2023-01-20T01:55:23;48.07;;;23.00;;
13571;SDS011;6857;53.484;10.216;2023-01-20T01:57:52;47.40;;;22.77;;
13571;SDS011;6857;53.484;10.216;2023-01-20T02:00:19;46.67;;;23.60;;
13571;SDS011;6857;53.484;10.216;2023-01-20T02:02:45;45.60;;;22.60;;
13571;SDS011;6857;53.484;10.216;2023-01-20T02:05:11;42.53;;;23.07;;
13571;SDS011;6857;53.484;10.216;2023-01-20T02:07:39;44.13;;;23.87;;
13571;SDS011;6857;53.484;10.216;2023-01-20T02:10:08;50.17;;;25.57;;
13571;SDS011;6857;53.484;10.216;2023-01-20T02:12:34;53.97;;;24.83;;
13571;SDS011;6857;53.484;10.216;2023-01-20T02:15:00;42.13;;;22.90;;
13571;SDS011;6857;53.484;10.216;2023-01-20T02:28:20;53.23;;;25.50;;
13571;SDS011;6857;53.484;10.216;2023-01-20T02:33:53;45.00;;;24.27;;
13571;SDS011;6857;53.484;10.216;2023-01-20T02:36:53;47.07;;;25.13;;
13571;SDS011;6857;53.484;10.216;2023-01-20T02:39:47;43.10;;;23.77;;
13571;SDS011;6857;53.484;10.216;2023-01-20T02:42:25;53.87;;;26.03;;
13571;SDS011;6857;53.484;10.216;2023-01-20T02:44:58;49.50;;;24.93;;
13571;SDS011;6857;53.484;10.216;2023-01-20T02:47:44;51.90;;;25.07;;
13571;SDS011;6857;53.484;10.216;2023-01-20T02:50:39;52.37;;;26.93;;
13571;SDS011;6857;53.484;10.216;2023-01-20T02:53:12;52.53;;;25.63;;
13571;SDS011;6857;53.484;10.216;2023-01-20T02:55:41;48.37;;;23.97;;
13571;SDS011;6857;53.484;10.216;2023-01-20T02:58:12;55.90;;;26.63;;
13571;SDS011;6857;53.484;10.216;2023-01-20T03:00:52;52.73;;;26.40;;
13571;SDS011;6857;53.484;10.216;2023-01-20T03:03:27;47.40;;;24.53;;
13571;SDS011;6857;53.484;10.216;2023-01-20T03:05:57;50.57;;;27.63;;
13571;SDS011;6857;53.484;10.216;2023-01-20T03:08:25;49.37;;;27.83;;
13571;SDS011;6857;53.484;10.216;2023-01-20T03:10:53;46.90;;;26.07;;
13571;SDS011;6857;53.484;10.216;2023-01-20T03:16:19;47.10;;;24.50;;
13571;SDS011;6857;53.484;10.216;2023-01-20T03:18:48;45.43;;;24.83;;
13571;SDS011;6857;53.484;10.216;2023-01-20T03:21:14;41.50;;;22.93;;
13571;SDS011;6857;53.484;10.216;2023-01-20T03:23:41;46.83;;;24.83;;
13571;SDS011;6857;53.484;10.216;2023-01-20T03:26:11;46.87;;;24.73;;
13571;SDS011;6857;53.484;10.216;2023-01-20T03:28:39;42.73;;;23.30;;
13571;SDS011;6857;53.484;10.216;2023-01-20T03:31:09;50.67;;;25.57;;
13571;SDS011;6857;53.484;10.216;2023-01-20T03:33:44;46.47;;;24.83;;
13571;SDS011;6857;53.484;10.216;2023-01-20T03:36:12;44.37;;;24.53;;
13571;SDS011;6857;53.484;10.216;2023-01-20T03:38:39;44.03;;;24.03;;
13571;SDS011;6857;53.484;10.216;2023-01-20T03:52:24;47.60;;;23.83;;
13571;SDS011;6857;53.484;10.216;2023-01-20T03:55:14;45.37;;;23.47;;
13571;SDS011;6857;53.484;10.216;2023-01-20T03:57:47;45.67;;;23.57;;
13571;SDS011;6857;53.484;10.216;2023-01-20T04:00:19;44.77;;;23.20;;
13571;SDS011;6857;53.484;10.216;2023-01-20T04:02:46;44.47;;;24.23;;
13571;SDS011;6857;53.484;10.216;2023-01-20T04:05:13;43.50;;;23.27;;
13571;SDS011;6857;53.484;10.216;2023-01-20T04:07:40;43.93;;;23.80;;
13571;SDS011;6857;53.484;10.216;2023-01-20T04:10:09;39.47;;;21.73;;
13571;SDS011;6857;53.484;10.216;2023-01-20T04:12:38;44.70;;;23.00;;
13571;SDS011;6857;53.484;10.216;2023-01-20T04:15:04;42.20;;;23.63;;
13571;SDS011;6857;53.484;10.216;2023-01-20T04:17:31;43.10;;;22.63;;
13571;SDS011;6857;53.484;10.216;2023-01-20T04:19:57;44.57;;;22.43;;
13571;SDS011;6857;53.484;10.216;2023-01-20T04:22:32;38.97;;;21.53;;
13571;SDS011;6857;53.484;10.216;2023-01-20T04:25:25;43.93;;;22.67;;
13571;SDS011;6857;53.484;10.216;2023-01-20T04:27:50;42.97;;;23.10;;
13571;SDS011;6857;53.484;10.216;2023-01-20T04:30:16;44.60;;;21.40;;
13571;SDS011;6857;53.484;10.216;2023-01-20T04:32:41;42.10;;;21.73;;
13571;SDS011;6857;53.484;10.216;2023-01-20T04:35:08;41.87;;;21.13;;
13571;SDS011;6857;53.484;10.216;2023-01-20T04:37:39;36.63;;;20.90;;
13571;SDS011;6857;53.484;10.216;2023-01-20T04:40:05;38.60;;;19.57;;
13571;SDS011;6857;53.484;10.216;2023-01-20T04:42:31;39.30;;;20.93;;
13571;SDS011;6857;53.484;10.216;2023-01-20T04:44:57;37.47;;;19.90;;
13571;SDS011;6857;53.484;10.216;2023-01-20T04:47:23;40.67;;;21.07;;
13571;SDS011;6857;53.484;10.216;2023-01-20T04:49:48;37.00;;;19.23;;
13571;SDS011;6857;53.484;10.216;2023-01-20T04:52:14;44.23;;;20.20;;
13571;SDS011;6857;53.484;10.216;2023-01-20T04:54:41;38.47;;;19.60;;
13571;SDS011;6857;53.484;10.216;2023-01-20T04:57:06;35.70;;;18.90;;
13571;SDS011;6857;53.484;10.216;2023-01-20T04:59:32;37.90;;;18.43;;
13571;SDS011;6857;53.484;10.216;2023-01-20T05:01:57;37.33;;;20.70;;
13571;SDS011;6857;53.484;10.216;2023-01-20T05:04:23;36.90;;;18.17;;
13571;SDS011;6857;53.484;10.216;2023-01-20T05:06:48;41.60;;;19.87;;
13571;SDS011;6857;53.484;10.216;2023-01-20T05:09:14;36.73;;;19.17;;
13571;SDS011;6857;53.484;10.216;2023-01-20T05:11:43;37.17;;;19.50;;
13571;SDS011;6857;53.484;10.216;2023-01-20T05:14:09;34.37;;;18.20;;
13571;SDS011;6857;53.484;10.216;2023-01-20T05:16:35;37.87;;;18.47;;
13571;SDS011;6857;53.484;10.216;2023-01-20T05:19:01;34.00;;;18.17;;
13571;SDS011;6857;53.484;10.216;2023-01-20T05:21:27;32.97;;;16.17;;
13571;SDS011;6857;53.484;10.216;2023-01-20T05:23:53;36.67;;;18.10;;
13571;SDS011;6857;53.484;10.216;2023-01-20T05:26:19;33.70;;;17.13;;
13571;SDS011;6857;53.484;10.216;2023-01-20T05:28:46;35.20;;;17.37;;
13571;SDS011;6857;53.484;10.216;2023-01-20T05:31:12;36.13;;;17.10;;
13571;SDS011;6857;53.484;10.216;2023-01-20T05:33:37;35.60;;;17.17;;
13571;SDS011;6857;53.484;10.216;2023-01-20T05:36:06;30.93;;;16.40;;
13571;SDS011;6857;53.484;10.216;2023-01-20T05:38:33;34.30;;;17.17;;
13571;SDS011;6857;53.484;10.216;2023-01-20T05:40:59;34.27;;;17.60;;
13571;SDS011;6857;53.484;10.216;2023-01-20T05:43:25;32.93;;;16.53;;
13571;SDS011;6857;53.484;10.216;2023-01-20T05:45:51;31.43;;;16.37;;
13571;SDS011;6857;53.484;10.216;2023-01-20T05:48:17;32.63;;;16.53;;
13571;SDS011;6857;53.484;10.216;2023-01-20T05:50:42;38.07;;;17.90;;
13571;SDS011;6857;53.484;10.216;2023-01-20T05:53:08;32.37;;;17.47;;
13571;SDS011;6857;53.484;10.216;2023-01-20T05:55:34;35.33;;;17.17;;
13571;SDS011;6857;53.484;10.216;2023-01-20T05:58:00;31.50;;;14.63;;
13571;SDS011;6857;53.484;10.216;2023-01-20T06:00:26;34.03;;;16.73;;
13571;SDS011;6857;53.484;10.216;2023-01-20T06:02:52;32.43;;;16.20;;
13571;SDS011;6857;53.484;10.216;2023-01-20T06:05:17;31.43;;;15.63;;
13571;SDS011;6857;53.484;10.216;2023-01-20T06:07:43;34.53;;;15.33;;
13571;SDS011;6857;53.484;10.216;2023-01-20T06:10:09;31.43;;;15.53;;
13571;SDS011;6857;53.484;10.216;2023-01-20T06:12:35;35.30;;;16.20;;
13571;SDS011;6857;53.484;10.216;2023-01-20T06:15:00;32.50;;;15.70;;
13571;SDS011;6857;53.484;10.216;2023-01-20T06:17:26;31.67;;;15.43;;
13571;SDS011;6857;53.484;10.216;2023-01-20T06:19:52;31.23;;;15.67;;
13571;SDS011;6857;53.484;10.216;2023-01-20T06:22:17;28.47;;;15.80;;
13571;SDS011;6857;53.484;10.216;2023-01-20T06:24:44;36.80;;;16.40;;
13571;SDS011;6857;53.484;10.216;2023-01-20T06:27:10;35.57;;;15.63;;
13571;SDS011;6857;53.484;10.216;2023-01-20T06:29:36;32.47;;;15.87;;
13571;SDS011;6857;53.484;10.216;2023-01-20T06:32:01;34.77;;;16.33;;
13571;SDS011;6857;53.484;10.216;2023-01-20T06:34:27;35.57;;;17.07;;
13571;SDS011;6857;53.484;10.216;2023-01-20T06:36:53;30.87;;;15.07;;
13571;SDS011;6857;53.484;10.216;2023-01-20T06:39:18;31.43;;;15.07;;
13571;SDS011;6857;53.484;10.216;2023-01-20T06:41:44;30.17;;;16.07;;
13571;SDS011;6857;53.484;10.216;2023-01-20T06:44:10;30.47;;;15.50;;
13571;SDS011;6857;53.484;10.216;2023-01-20T06:46:35;29.70;;;14.53;;
13571;SDS011;6857;53.484;10.216;2023-01-20T06:49:01;31.33;;;15.43;;
13571;SDS011;6857;53.484;10.216;2023-01-20T06:51:27;34.40;;;16.20;;
13571;SDS011;6857;53.484;10.216;2023-01-20T06:53:54;31.40;;;15.43;;
13571;SDS011;6857;53.484;10.216;2023-01-20T06:56:20;31.20;;;15.73;;
13571;SDS011;6857;53.484;10.216;2023-01-20T06:58:46;34.87;;;16.17;;
13571;SDS011;6857;53.484;10.216;2023-01-20T07:01:13;28.10;;;15.03;;
13571;SDS011;6857;53.484;10.216;2023-01-20T07:03:40;29.43;;;14.60;;
13571;SDS011;6857;53.484;10.216;2023-01-20T07:06:27;29.53;;;14.60;;
13571;SDS011;6857;53.484;10.216;2023-01-20T07:08:57;27.00;;;14.47;;
13571;SDS011;6857;53.484;10.216;2023-01-20T07:11:24;29.83;;;15.50;;
13571;SDS011;6857;53.484;10.216;2023-01-20T07:13:50;33.03;;;15.67;;
13571;SDS011;6857;53.484;10.216;2023-01-20T07:16:16;31.77;;;14.80;;
13571;SDS011;6857;53.484;10.216;2023-01-20T07:18:42;31.13;;;15.07;;
13571;SDS011;6857;53.484;10.216;2023-01-20T07:21:11;26.97;;;14.73;;
13571;SDS011;6857;53.484;10.216;2023-01-20T07:23:36;29.17;;;14.87;;
13571;SDS011;6857;53.484;10.216;2023-01-20T07:26:04;29.50;;;14.77;;
13571;SDS011;6857;53.484;10.216;2023-01-20T07:28:32;32.83;;;15.17;;
13571;SDS011;6857;53.484;10.216;2023-01-20T07:31:05;29.43;;;14.73;;
13571;SDS011;6857;53.484;10.216;2023-01-20T07:33:35;31.77;;;15.20;;
13571;SDS011;6857;53.484;10.216;2023-01-20T07:36:01;28.73;;;15.03;;
13571;SDS011;6857;53.484;10.216;2023-01-20T07:38:27;32.80;;;15.63;;
13571;SDS011;6857;53.484;10.216;2023-01-20T07:40:57;31.77;;;14.80;;
13571;SDS011;6857;53.484;10.216;2023-01-20T07:43:23;30.40;;;15.70;;
13571;SDS011;6857;53.484;10.216;2023-01-20T07:45:49;32.50;;;15.27;;
13571;SDS011;6857;53.484;10.216;2023-01-20T07:48:14;28.87;;;15.57;;
13571;SDS011;6857;53.484;10.216;2023-01-20T07:50:40;30.63;;;15.80;;
13571;SDS011;6857;53.484;10.216;2023-01-20T07:53:05;31.80;;;15.57;;
13571;SDS011;6857;53.484;10.216;2023-01-20T07:55:32;32.77;;;14.83;;
13571;SDS011;6857;53.484;10.216;2023-01-20T07:57:57;26.43;;;14.07;;
13571;SDS011;6857;53.484;10.216;2023-01-20T08:00:23;29.77;;;15.20;;
13571;SDS011;6857;53.484;10.216;2023-01-20T08:02:49;30.43;;;14.13;;
13571;SDS011;6857;53.484;10.216;2023-01-20T08:05:14;30.73;;;15.17;;
13571;SDS011;6857;53.484;10.216;2023-01-20T08:07:40;31.20;;;15.23;;
13571;SDS011;6857;53.484;10.216;2023-01-20T08:10:06;31.10;;;15.67;;
13571;SDS011;6857;53.484;10.216;2023-01-20T08:12:32;32.80;;;16.47;;
13571;SDS011;6857;53.484;10.216;2023-01-20T08:14:57;29.70;;;15.40;;
13571;SDS011;6857;53.484;10.216;2023-01-20T08:17:23;31.60;;;15.80;;
13571;SDS011;6857;53.484;10.216;2023-01-20T08:19:48;32.20;;;14.77;;
13571;SDS011;6857;53.484;10.216;2023-01-20T08:22:14;29.20;;;14.90;;
13571;SDS011;6857;53.484;10.216;2023-01-20T08:24:40;32.47;;;15.27;;
13571;SDS011;6857;53.484;10.216;2023-01-20T08:27:05;26.90;;;13.87;;
13571;SDS011;6857;53.484;10.216;2023-01-20T08:29:31;32.93;;;15.80;;
13571;SDS011;6857;53.484;10.216;2023-01-20T08:32:00;32.70;;;15.63;;
13571;SDS011;6857;53.484;10.216;2023-01-20T08:34:27;29.10;;;14.73;;
13571;SDS011;6857;53.484;10.216;2023-01-20T08:36:53;34.33;;;16.83;;
13571;SDS011;6857;53.484;10.216;2023-01-20T08:39:21;35.10;;;15.73;;
13571;SDS011;6857;53.484;10.216;2023-01-20T08:41:47;31.47;;;15.23;;
13571;SDS011;6857;53.484;10.216;2023-01-20T08:44:13;28.47;;;14.97;;
13571;SDS011;6857;53.484;10.216;2023-01-20T08:46:40;31.47;;;14.93;;
13571;SDS011;6857;53.484;10.216;2023-01-20T08:49:07;29.90;;;14.83;;
13571;SDS011;6857;53.484;10.216;2023-01-20T08:51:37;33.57;;;15.80;;
13571;SDS011;6857;53.484;10.216;2023-01-20T08:54:04;30.30;;;15.53;;
13571;SDS011;6857;53.484;10.216;2023-01-20T08:56:30;32.93;;;15.60;;
13571;SDS011;6857;53.484;10.216;2023-01-20T08:58:56;30.27;;;14.47;;
13571;SDS011;6857;53.484;10.216;2023-01-20T09:01:23;31.73;;;15.07;;
13571;SDS011;6857;53.484;10.216;2023-01-20T09:03:53;33.03;;;14.47;;
13571;SDS011;6857;53.484;10.216;2023-01-20T09:06:20;29.30;;;14.20;;
13571;SDS011;6857;53.484;10.216;2023-01-20T09:08:47;26.87;;;13.60;;
13571;SDS011;6857;53.484;10.216;2023-01-20T09:11:14;29.80;;;14.43;;
13571;SDS011;6857;53.484;10.216;2023-01-20T09:13:42;29.20;;;14.97;;
13571;SDS011;6857;53.484;10.216;2023-01-20T09:16:09;26.17;;;14.20;;
13571;SDS011;6857;53.484;10.216;2023-01-20T09:18:36;24.17;;;11.67;;
13571;SDS011;6857;53.484;10.216;2023-01-20T09:21:02;27.37;;;14.50;;
13571;SDS011;6857;53.484;10.216;2023-01-20T09:23:32;32.20;;;14.07;;
13571;SDS011;6857;53.484;10.216;2023-01-20T09:25:59;31.00;;;12.83;;
13571;SDS011;6857;53.484;10.216;2023-01-20T09:28:26;28.03;;;14.10;;
13571;SDS011;6857;53.484;10.216;2023-01-20T09:31:05;26.43;;;13.77;;
13571;SDS011;6857;53.484;10.216;2023-01-20T09:33:32;26.17;;;12.73;;
13571;SDS011;6857;53.484;10.216;2023-01-20T09:36:00;28.37;;;13.97;;
13571;SDS011;6857;53.484;10.216;2023-01-20T09:38:26;26.30;;;14.13;;
13571;SDS011;6857;53.484;10.216;2023-01-20T09:41:28;25.27;;;12.67;;
13571;SDS011;6857;53.484;10.216;2023-01-20T10:00:48;32.23;;;14.53;;
13571;SDS011;6857;53.484;10.216;2023-01-20T10:06:21;26.37;;;13.90;;
13571;SDS011;6857;53.484;10.216;2023-01-20T10:09:00;29.07;;;14.10;;
13571;SDS011;6857;53.484;10.216;2023-01-20T10:11:30;25.53;;;13.03;;
13571;SDS011;6857;53.484;10.216;2023-01-20T10:14:04;26.67;;;13.33;;
13571;SDS011;6857;53.484;10.216;2023-01-20T10:16:44;28.27;;;13.43;;
13571;SDS011;6857;53.484;10.216;2023-01-20T10:19:31;24.03;;;13.47;;
13571;SDS011;6857;53.484;10.216;2023-01-20T10:22:03;28.73;;;12.57;;
13571;SDS011;6857;53.484;10.216;2023-01-20T10:24:43;27.03;;;12.97;;
13571;SDS011;6857;53.484;10.216;2023-01-20T10:27:13;24.20;;;12.43;;
13571;SDS011;6857;53.484;10.216;2023-01-20T10:29:48;25.97;;;12.73;;
13571;SDS011;6857;53.484;10.216;2023-01-20T10:32:23;25.43;;;12.40;;
13571;SDS011;6857;53.484;10.216;2023-01-20T10:34:57;25.07;;;12.17;;
13571;SDS011;6857;53.484;10.216;2023-01-20T10:37:27;25.00;;;11.90;;
13571;SDS011;6857;53.484;10.216;2023-01-20T10:39:55;23.53;;;11.60;;
13571;SDS011;6857;53.484;10.216;2023-01-20T10:42:28;21.23;;;11.67;;
13571;SDS011;6857;53.484;10.216;2023-01-20T10:44:53;22.23;;;11.90;;
13571;SDS011;6857;53.484;10.216;2023-01-20T10:47:24;25.13;;;12.93;;
13571;SDS011;6857;53.484;10.216;2023-01-20T10:56:01;19.87;;;10.77;;
13571;SDS011;6857;53.484;10.216;2023-01-20T10:58:37;23.97;;;11.30;;
13571;SDS011;6857;53.484;10.216;2023-01-20T11:01:06;20.17;;;11.33;;
13571;SDS011;6857;53.484;10.216;2023-01-20T11:03:35;25.67;;;11.93;;
13571;SDS011;6857;53.484;10.216;2023-01-20T11:06:04;20.97;;;10.63;;
13571;SDS011;6857;53.484;10.216;2023-01-20T11:08:30;23.20;;;12.30;;
13571;SDS011;6857;53.484;10.216;2023-01-20T11:11:00;22.50;;;11.63;;
13571;SDS011;6857;53.484;10.216;2023-01-20T11:13:34;22.07;;;11.37;;
13571;SDS011;6857;53.484;10.216;2023-01-20T11:16:01;21.13;;;11.33;;
13571;SDS011;6857;53.484;10.216;2023-01-20T11:18:31;24.43;;;11.80;;
13571;SDS011;6857;53.484;10.216;2023-01-20T11:20:59;22.80;;;11.57;;
13571;SDS011;6857;53.484;10.216;2023-01-20T11:26:17;20.67;;;11.40;;
13571;SDS011;6857;53.484;10.216;2023-01-20T11:31:21;20.67;;;11.60;;
13571;SDS011;6857;53.484;10.216;2023-01-20T11:36:47;20.47;;;11.30;;
13571;SDS011;6857;53.484;10.216;2023-01-20T11:39:41;18.90;;;10.60;;
13571;SDS011;6857;53.484;10.216;2023-01-20T11:42:14;21.23;;;10.70;;
13571;SDS011;6857;53.484;10.216;2023-01-20T11:44:48;20.90;;;11.20;;
13571;SDS011;6857;53.484;10.216;2023-01-20T11:52:33;24.63;;;12.33;;
13571;SDS011;6857;53.484;10.216;2023-01-20T11:55:06;30.90;;;12.77;;
13571;SDS011;6857;53.484;10.216;2023-01-20T11:57:34;20.20;;;10.57;;
13571;SDS011;6857;53.484;10.216;2023-01-20T12:00:02;18.47;;;10.07;;
13571;SDS011;6857;53.484;10.216;2023-01-20T12:02:28;48.27;;;13.53;;
13571;SDS011;6857;53.484;10.216;2023-01-20T12:07:36;17.83;;;10.43;;
13571;SDS011;6857;53.484;10.216;2023-01-20T12:10:13;21.13;;;11.30;;
13571;SDS011;6857;53.484;10.216;2023-01-20T12:12:46;17.47;;;10.17;;
13571;SDS011;6857;53.484;10.216;2023-01-20T12:18:36;19.87;;;11.17;;
13571;SDS011;6857;53.484;10.216;2023-01-20T12:21:10;17.40;;;10.07;;
13571;SDS011;6857;53.484;10.216;2023-01-20T12:26:17;20.13;;;10.57;;
13571;SDS011;6857;53.484;10.216;2023-01-20T12:28:58;21.17;;;11.23;;
13571;SDS011;6857;53.484;10.216;2023-01-20T12:31:37;18.97;;;10.37;;
13571;SDS011;6857;53.484;10.216;2023-01-20T12:34:04;18.00;;;10.37;;
13571;SDS011;6857;53.484;10.216;2023-01-20T12:42:04;18.87;;;10.63;;
13571;SDS011;6857;53.484;10.216;2023-01-20T12:47:42;21.00;;;10.63;;
13571;SDS011;6857;53.484;10.216;2023-01-20T12:53:30;18.83;;;10.20;;
13571;SDS011;6857;53.484;10.216;2023-01-20T13:04:58;21.27;;;11.17;;
13571;SDS011;6857;53.484;10.216;2023-01-20T13:10:28;17.90;;;9.67;;
13571;SDS011;6857;53.484;10.216;2023-01-20T13:13:38;20.37;;;10.80;;
13571;SDS011;6857;53.484;10.216;2023-01-20T13:16:23;15.73;;;9.80;;
13571;SDS011;6857;53.484;10.216;2023-01-20T13:21:48;19.57;;;10.60;;
13571;SDS011;6857;53.484;10.216;2023-01-20T13:24:16;19.20;;;10.43;;
13571;SDS011;6857;53.484;10.216;2023-01-20T13:26:48;30.93;;;14.60;;
13571;SDS011;6857;53.484;10.216;2023-01-20T13:29:19;20.23;;;12.00;;
13571;SDS011;6857;53.484;10.216;2023-01-20T13:32:01;21.27;;;11.60;;
13571;SDS011;6857;53.484;10.216;2023-01-20T13:42:24;20.47;;;10.87;;
13571;SDS011;6857;53.484;10.216;2023-01-20T13:45:14;20.40;;;11.60;;
13571;SDS011;6857;53.484;10.216;2023-01-20T13:50:32;20.73;;;11.03;;
13571;SDS011;6857;53.484;10.216;2023-01-20T13:53:11;16.53;;;9.33;;
13571;SDS011;6857;53.484;10.216;2023-01-20T14:00:59;18.80;;;10.43;;
13571;SDS011;6857;53.484;10.216;2023-01-20T14:03:30;18.03;;;10.23;;
13571;SDS011;6857;53.484;10.216;2023-01-20T14:05:58;15.60;;;9.60;;
13571;SDS011;6857;53.484;10.216;2023-01-20T14:08:25;17.53;;;8.93;;
13571;SDS011;6857;53.484;10.216;2023-01-20T14:13:52;20.27;;;10.30;;
13571;SDS011;6857;53.484;10.216;2023-01-20T14:16:26;19.80;;;9.57;;
13571;SDS011;6857;53.484;10.216;2023-01-20T14:18:57;15.93;;;9.20;;
13571;SDS011;6857;53.484;10.216;2023-01-20T14:21:28;16.53;;;9.80;;
13571;SDS011;6857;53.484;10.216;2023-01-20T14:23:54;20.37;;;10.13;;
13571;SDS011;6857;53.484;10.216;2023-01-20T14:26:26;15.43;;;9.67;;
13571;SDS011;6857;53.484;10.216;2023-01-20T14:28:53;15.83;;;9.30;;
13571;SDS011;6857;53.484;10.216;2023-01-20T14:31:20;18.70;;;9.67;;
13571;SDS011;6857;53.484;10.216;2023-01-20T14:33:49;18.40;;;9.93;;
13571;SDS011;6857;53.484;10.216;2023-01-20T14:36:17;18.30;;;10.30;;
13571;SDS011;6857;53.484;10.216;2023-01-20T14:38:54;16.43;;;9.33;;
13571;SDS011;6857;53.484;10.216;2023-01-20T14:41:31;16.37;;;9.73;;
13571;SDS011;6857;53.484;10.216;2023-01-20T14:43:57;19.03;;;10.70;;
13571;SDS011;6857;53.484;10.216;2023-01-20T14:46:25;22.77;;;10.03;;
13571;SDS011;6857;53.484;10.216;2023-01-20T14:48:52;16.90;;;10.33;;
13571;SDS011;6857;53.484;10.216;2023-01-20T14:51:19;18.83;;;10.60;;
13571;SDS011;6857;53.484;10.216;2023-01-20T14:53:45;19.97;;;9.93;;
13571;SDS011;6857;53.484;10.216;2023-01-20T14:56:21;16.83;;;9.47;;
13571;SDS011;6857;53.484;10.216;2023-01-20T14:58:48;19.03;;;10.50;;
13571;SDS011;6857;53.484;10.216;2023-01-20T15:01:21;17.77;;;10.07;;
13571;SDS011;6857;53.484;10.216;2023-01-20T15:03:55;18.97;;;10.17;;
13571;SDS011;6857;53.484;10.216;2023-01-20T15:06:22;19.87;;;9.70;;
13571;SDS011;6857;53.484;10.216;2023-01-20T15:08:50;20.17;;;10.87;;
13571;SDS011;6857;53.484;10.216;2023-01-20T15:11:18;17.30;;;10.30;;
13571;SDS011;6857;53.484;10.216;2023-01-20T15:24:15;17.27;;;10.63;;
13571;SDS011;6857;53.484;10.216;2023-01-20T15:26:42;20.73;;;10.47;;
13571;SDS011;6857;53.484;10.216;2023-01-20T15:31:51;17.20;;;9.40;;
13571;SDS011;6857;53.484;10.216;2023-01-20T15:34:18;18.57;;;10.13;;
13571;SDS011;6857;53.484;10.216;2023-01-20T15:36:45;19.00;;;10.47;;
13571;SDS011;6857;53.484;10.216;2023-01-20T15:39:16;15.63;;;10.00;;
13571;SDS011;6857;53.484;10.216;2023-01-20T15:41:42;18.00;;;9.87;;
13571;SDS011;6857;53.484;10.216;2023-01-20T15:44:09;19.07;;;9.93;;
13571;SDS011;6857;53.484;10.216;2023-01-20T15:46:35;17.87;;;10.50;;
13571;SDS011;6857;53.484;10.216;2023-01-20T15:49:02;21.40;;;10.27;;
13571;SDS011;6857;53.484;10.216;2023-01-20T15:51:28;19.00;;;10.17;;
13571;SDS011;6857;53.484;10.216;2023-01-20T15:53:55;20.20;;;10.53;;
13571;SDS011;6857;53.484;10.216;2023-01-20T15:56:25;21.90;;;10.53;;
13571;SDS011;6857;53.484;10.216;2023-01-20T15:58:52;18.50;;;10.30;;
13571;SDS011;6857;53.484;10.216;2023-01-20T16:01:19;19.10;;;10.27;;
13571;SDS011;6857;53.484;10.216;2023-01-20T16:03:48;20.00;;;10.73;;
13571;SDS011;6857;53.484;10.216;2023-01-20T16:06:15;17.93;;;10.77;;
13571;SDS011;6857;53.484;10.216;2023-01-20T16:08:43;20.73;;;10.47;;
13571;SDS011;6857;53.484;10.216;2023-01-20T16:11:10;22.10;;;11.40;;
13571;SDS011;6857;53.484;10.216;2023-01-20T16:13:36;20.70;;;11.20;;
13571;SDS011;6857;53.484;10.216;2023-01-20T16:16:03;19.17;;;11.03;;
13571;SDS011;6857;53.484;10.216;2023-01-20T16:18:29;19.13;;;10.50;;
13571;SDS011;6857;53.484;10.216;2023-01-20T16:20:55;19.03;;;10.20;;
13571;SDS011;6857;53.484;10.216;2023-01-20T16:23:22;21.73;;;10.87;;
13571;SDS011;6857;53.484;10.216;2023-01-20T16:25:48;20.27;;;10.87;;
13571;SDS011;6857;53.484;10.216;2023-01-20T16:28:15;21.00;;;11.17;;
13571;SDS011;6857;53.484;10.216;2023-01-20T16:30:46;20.57;;;11.70;;
13571;SDS011;6857;53.484;10.216;2023-01-20T16:33:14;20.40;;;11.33;;
13571;SDS011;6857;53.484;10.216;2023-01-20T16:35:41;22.37;;;12.00;;
13571;SDS011;6857;53.484;10.216;2023-01-20T16:38:13;24.07;;;12.63;;
13571;SDS011;6857;53.484;10.216;2023-01-20T16:40:44;28.57;;;13.17;;
13571;SDS011;6857;53.484;10.216;2023-01-20T16:43:11;26.90;;;14.57;;
13571;SDS011;6857;53.484;10.216;2023-01-20T16:45:37;24.47;;;12.90;;
13571;SDS011;6857;53.484;10.216;2023-01-20T16:48:04;26.23;;;12.87;;
13571;SDS011;6857;53.484;10.216;2023-01-20T16:50:33;21.77;;;12.70;;